Roth, North Dakota
Current Conditions -  °F | °C
As of 9:58 AM on Wednesday 22 Oct 2014 (Local Time) from KMIB Reporting Station
Broken Clouds Broken Clouds  
Wind Chill: 12°   Ceiling: 12000
Heat Index: 12°   Visibility: 10mi
Dew Point:   Wind: 18mph
Humidity: 78%   Direction: 260°W
Pressure: 29.73"   Gusts: NA
Location:  48.9505°N, 100.734°W
Report Text: KMIB 221458Z AUTO 26016KT 10SM SCT095 BKN120 12/08 A2973 RMK AO2 SLP076 T01180081 52016 $
Loading
Personal Weather Stations






























Interactive Weather Map
Tropical Storm Tracking
New forecast layout! Learn more

10-Day Weather Forecast

Advertisements
Track Severe Weather on mobile